BEL2624 EDDH-EBBR
Flight info
| Callsign | BEL2624 |
|---|---|
| Flight time | 1h 5m |
| Altitude | 36000 |
| Route | WSN5G/33 WSN N125 SILQI N872 LILSI/N0438F350 Z310 WOODY |
| Aircraft | A319/M-SDE3FGHIRWY/LB1 |
Departure
| Time | 2026-05-07 17:59 |
|---|---|
| Airport | Hamburg Helmut Schmidt Airport (EDDH) |
Arrival
| Time | 2026-05-07 19:04 |
|---|---|
| Airport | Brussels Airport (EBBR) |
| Time | Latitude | Longitude | Altitude | Speed | Heading |
|---|---|---|---|---|---|
| 2026-05-07 17:29 | 53.63374 | 10.00342 | 51 ft | 0 kts | 86° |
| 2026-05-07 17:50 | 53.63374 | 10.00338 | 51 ft | 2 kts | 86° |
| 2026-05-07 17:50 | 53.63372 | 10.00294 | 48 ft | 4 kts | 84° |
| 2026-05-07 17:50 | 53.63369 | 10.00249 | 48 ft | 3 kts | 86° |
| 2026-05-07 17:51 | 53.63368 | 10.00213 | 51 ft | 4 kts | 94° |
| 2026-05-07 17:51 | 53.63374 | 10.00171 | 46 ft | 4 kts | 135° |
| 2026-05-07 17:51 | 53.63386 | 10.00158 | 47 ft | 0 kts | 176° |
| 2026-05-07 17:55 | 53.63373 | 10.00160 | 49 ft | 4 kts | 175° |
| 2026-05-07 17:55 | 53.63333 | 10.00166 | 51 ft | 8 kts | 175° |
| 2026-05-07 17:55 | 53.63267 | 10.00176 | 51 ft | 11 kts | 175° |
| 2026-05-07 17:56 | 53.63175 | 10.00184 | 51 ft | 15 kts | 176° |
| 2026-05-07 17:56 | 53.63061 | 10.00171 | 51 ft | 18 kts | 205° |
| 2026-05-07 17:56 | 53.62961 | 10.00064 | 51 ft | 13 kts | 213° |
| 2026-05-07 17:56 | 53.62876 | 10.00036 | 51 ft | 13 kts | 197° |
| 2026-05-07 17:57 | 53.62845 | 9.99965 | 50 ft | 0 kts | 243° |
| 2026-05-07 17:57 | 53.62844 | 9.99962 | 50 ft | 1 kts | 243° |
| 2026-05-07 17:58 | 53.62837 | 9.99937 | 50 ft | 4 kts | 245° |
| 2026-05-07 17:58 | 53.62819 | 9.99871 | 47 ft | 9 kts | 245° |
| 2026-05-07 17:58 | 53.62838 | 9.99768 | 49 ft | 12 kts | 327° |
| 2026-05-07 17:58 | 53.62851 | 9.99756 | 49 ft | 5 kts | 331° |
| 2026-05-07 17:59 | 53.63162 | 9.99494 | 50 ft | 91 kts | 333° |
| 2026-05-07 17:59 | 53.63943 | 9.98831 | 51 ft | 157 kts | 334° |
| 2026-05-07 17:59 | 53.64993 | 9.97896 | 424 ft | 177 kts | 334° |
| 2026-05-07 17:59 | 53.66100 | 9.96933 | 1141 ft | 182 kts | 338° |
| 2026-05-07 18:00 | 53.67275 | 9.96028 | 1888 ft | 193 kts | 339° |
| 2026-05-07 18:00 | 53.68576 | 9.94962 | 1934 ft | 215 kts | 336° |
| 2026-05-07 18:00 | 53.69915 | 9.93804 | 1944 ft | 217 kts | 335° |
| 2026-05-07 18:00 | 53.71072 | 9.92150 | 1949 ft | 224 kts | 303° |
| 2026-05-07 18:01 | 53.71433 | 9.89557 | 2158 ft | 244 kts | 262° |
| 2026-05-07 18:01 | 53.70837 | 9.86750 | 2869 ft | 264 kts | 242° |
| 2026-05-07 18:01 | 53.70121 | 9.83831 | 3935 ft | 272 kts | 249° |
| 2026-05-07 18:01 | 53.69529 | 9.80777 | 5064 ft | 275 kts | 252° |
| 2026-05-07 18:02 | 53.68419 | 9.74520 | 7264 ft | 281 kts | 253° |
| 2026-05-07 18:02 | 53.67845 | 9.71348 | 8331 ft | 284 kts | 252° |
| 2026-05-07 18:02 | 53.67249 | 9.68164 | 9384 ft | 287 kts | 252° |
| 2026-05-07 18:03 | 53.66734 | 9.65477 | 9856 ft | 291 kts | 252° |
| 2026-05-07 18:03 | 53.66103 | 9.62236 | 10055 ft | 291 kts | 252° |
| 2026-05-07 18:03 | 53.65403 | 9.58911 | 10100 ft | 315 kts | 246° |
| 2026-05-07 18:03 | 53.64299 | 9.55657 | 10105 ft | 324 kts | 234° |
| 2026-05-07 18:04 | 53.62966 | 9.52576 | 10109 ft | 326 kts | 234° |
| 2026-05-07 18:04 | 53.61633 | 9.49489 | 10107 ft | 326 kts | 234° |
| 2026-05-07 18:04 | 53.60529 | 9.46925 | 10108 ft | 326 kts | 234° |
| 2026-05-07 18:04 | 53.59179 | 9.43788 | 10554 ft | 334 kts | 234° |
| 2026-05-07 18:05 | 53.57823 | 9.40635 | 11646 ft | 332 kts | 234° |
| 2026-05-07 18:05 | 53.56464 | 9.37476 | 12633 ft | 334 kts | 234° |
| 2026-05-07 18:05 | 53.55095 | 9.34295 | 13560 ft | 337 kts | 234° |
| 2026-05-07 18:05 | 53.53713 | 9.31084 | 14394 ft | 341 kts | 234° |
| 2026-05-07 18:06 | 53.52311 | 9.27834 | 15158 ft | 345 kts | 234° |
| 2026-05-07 18:06 | 53.50893 | 9.24553 | 15912 ft | 349 kts | 234° |
| 2026-05-07 18:06 | 53.49458 | 9.21238 | 16668 ft | 353 kts | 234° |
| 2026-05-07 18:06 | 53.48001 | 9.17890 | 17407 ft | 357 kts | 234° |
| 2026-05-07 18:07 | 53.46527 | 9.14504 | 18142 ft | 361 kts | 234° |
| 2026-05-07 18:07 | 53.45035 | 9.11076 | 18825 ft | 365 kts | 234° |
| 2026-05-07 18:07 | 53.43533 | 9.07622 | 19493 ft | 368 kts | 234° |
| 2026-05-07 18:07 | 53.42017 | 9.04140 | 20175 ft | 371 kts | 234° |
| 2026-05-07 18:08 | 53.40483 | 9.00630 | 20862 ft | 374 kts | 234° |
| 2026-05-07 18:08 | 53.38938 | 8.97104 | 21528 ft | 377 kts | 234° |
| 2026-05-07 18:08 | 53.37377 | 8.93548 | 22185 ft | 381 kts | 234° |
| 2026-05-07 18:08 | 53.35810 | 8.89959 | 22836 ft | 384 kts | 235° |
| 2026-05-07 18:09 | 53.34466 | 8.86072 | 23473 ft | 387 kts | 245° |
| 2026-05-07 18:09 | 53.33489 | 8.81865 | 24020 ft | 390 kts | 250° |
| 2026-05-07 18:09 | 53.32555 | 8.77588 | 24543 ft | 393 kts | 250° |
| 2026-05-07 18:09 | 53.31603 | 8.73283 | 25058 ft | 396 kts | 250° |
| 2026-05-07 18:10 | 53.30637 | 8.68952 | 25570 ft | 399 kts | 250° |
| 2026-05-07 18:10 | 53.29660 | 8.64590 | 26074 ft | 402 kts | 250° |
| 2026-05-07 18:10 | 53.28684 | 8.60197 | 26558 ft | 405 kts | 250° |
| 2026-05-07 18:10 | 53.27708 | 8.55767 | 27046 ft | 408 kts | 250° |
| 2026-05-07 18:11 | 53.26730 | 8.51300 | 27538 ft | 410 kts | 250° |
| 2026-05-07 18:11 | 53.26087 | 8.48313 | 27858 ft | 412 kts | 251° |
| 2026-05-07 18:11 | 53.24881 | 8.42201 | 28488 ft | 416 kts | 252° |
| 2026-05-07 18:11 | 53.24027 | 8.37554 | 28959 ft | 419 kts | 253° |
| 2026-05-07 18:12 | 53.23195 | 8.32939 | 29414 ft | 422 kts | 253° |
| 2026-05-07 18:12 | 53.22343 | 8.28235 | 29864 ft | 425 kts | 253° |
| 2026-05-07 18:12 | 53.21470 | 8.23511 | 30286 ft | 428 kts | 252° |
| 2026-05-07 18:12 | 53.20730 | 8.19578 | 30586 ft | 430 kts | 252° |
| 2026-05-07 18:13 | 53.19820 | 8.14813 | 30939 ft | 433 kts | 252° |
| 2026-05-07 18:13 | 53.18899 | 8.10019 | 31289 ft | 435 kts | 252° |
| 2026-05-07 18:13 | 53.18322 | 8.07001 | 31494 ft | 437 kts | 252° |
| 2026-05-07 18:13 | 53.17401 | 8.02161 | 31831 ft | 440 kts | 252° |
| 2026-05-07 18:14 | 53.16479 | 7.97291 | 32243 ft | 440 kts | 252° |
| 2026-05-07 18:14 | 53.15563 | 7.92434 | 32722 ft | 440 kts | 252° |
| 2026-05-07 18:14 | 53.14648 | 7.87571 | 33174 ft | 440 kts | 252° |
| 2026-05-07 18:14 | 53.13729 | 7.82715 | 33622 ft | 440 kts | 252° |
| 2026-05-07 18:15 | 53.12803 | 7.77858 | 34064 ft | 440 kts | 252° |
| 2026-05-07 18:15 | 53.11873 | 7.73008 | 34463 ft | 440 kts | 252° |
| 2026-05-07 18:15 | 53.10943 | 7.68167 | 34872 ft | 439 kts | 251° |
| 2026-05-07 18:15 | 53.10015 | 7.63347 | 35285 ft | 437 kts | 251° |
| 2026-05-07 18:16 | 53.09082 | 7.58526 | 35668 ft | 436 kts | 251° |
| 2026-05-07 18:16 | 53.08149 | 7.53721 | 35995 ft | 437 kts | 251° |
| 2026-05-07 18:16 | 53.07217 | 7.48926 | 36081 ft | 433 kts | 251° |
| 2026-05-07 18:17 | 53.05372 | 7.39471 | 36093 ft | 428 kts | 251° |
| 2026-05-07 18:17 | 53.03530 | 7.30096 | 36095 ft | 427 kts | 251° |
| 2026-05-07 18:18 | 53.01683 | 7.20724 | 36095 ft | 427 kts | 251° |
| 2026-05-07 18:18 | 52.99806 | 7.11372 | 36095 ft | 427 kts | 251° |
| 2026-05-07 18:19 | 52.97904 | 7.02037 | 36090 ft | 427 kts | 251° |
| 2026-05-07 18:19 | 52.95992 | 6.92724 | 36092 ft | 427 kts | 250° |
| 2026-05-07 18:20 | 52.94073 | 6.83409 | 36092 ft | 427 kts | 250° |
| 2026-05-07 18:20 | 52.92147 | 6.74099 | 36094 ft | 427 kts | 250° |
| 2026-05-07 18:21 | 52.90221 | 6.64804 | 36089 ft | 426 kts | 250° |
| 2026-05-07 18:21 | 52.88290 | 6.55517 | 36091 ft | 426 kts | 250° |
| 2026-05-07 18:22 | 52.85697 | 6.46784 | 36086 ft | 424 kts | 229° |
| 2026-05-07 18:22 | 52.81429 | 6.40070 | 36079 ft | 424 kts | 222° |
| 2026-05-07 18:23 | 52.77799 | 6.34621 | 35931 ft | 425 kts | 222° |
| 2026-05-07 18:23 | 52.75612 | 6.31351 | 35684 ft | 424 kts | 222° |
| 2026-05-07 18:23 | 52.73428 | 6.28081 | 35437 ft | 424 kts | 222° |
| 2026-05-07 18:23 | 52.71241 | 6.24806 | 35188 ft | 424 kts | 222° |
| 2026-05-07 18:24 | 52.69067 | 6.21547 | 35282 ft | 423 kts | 222° |
| 2026-05-07 18:24 | 52.64699 | 6.15011 | 35337 ft | 424 kts | 222° |
| 2026-05-07 18:24 | 52.62521 | 6.11756 | 35220 ft | 422 kts | 222° |
| 2026-05-07 18:25 | 52.60357 | 6.08530 | 35311 ft | 415 kts | 222° |
| 2026-05-07 18:25 | 52.58261 | 6.05409 | 35295 ft | 400 kts | 222° |
| 2026-05-07 18:25 | 52.56224 | 6.02379 | 35120 ft | 390 kts | 222° |
| 2026-05-07 18:25 | 52.54227 | 5.99412 | 34714 ft | 386 kts | 222° |
| 2026-05-07 18:26 | 52.52241 | 5.96465 | 34264 ft | 384 kts | 222° |
| 2026-05-07 18:26 | 52.50261 | 5.93529 | 33733 ft | 384 kts | 222° |
| 2026-05-07 18:26 | 52.48276 | 5.90592 | 33142 ft | 384 kts | 222° |
| 2026-05-07 18:26 | 52.46290 | 5.87660 | 32528 ft | 384 kts | 222° |
| 2026-05-07 18:27 | 52.44302 | 5.84729 | 31935 ft | 385 kts | 222° |
| 2026-05-07 18:27 | 52.42310 | 5.81801 | 31334 ft | 385 kts | 222° |
| 2026-05-07 18:27 | 52.40313 | 5.78863 | 30727 ft | 386 kts | 222° |
| 2026-05-07 18:27 | 52.38315 | 5.75925 | 30226 ft | 386 kts | 222° |
| 2026-05-07 18:28 | 52.36318 | 5.72992 | 30051 ft | 386 kts | 222° |
| 2026-05-07 18:28 | 52.32304 | 5.67113 | 30083 ft | 388 kts | 222° |
| 2026-05-07 18:29 | 52.28282 | 5.61247 | 30086 ft | 388 kts | 222° |
| 2026-05-07 18:29 | 52.24261 | 5.55391 | 30082 ft | 387 kts | 222° |
| 2026-05-07 18:30 | 52.20239 | 5.49540 | 29921 ft | 391 kts | 222° |
| 2026-05-07 18:30 | 52.18208 | 5.46583 | 29623 ft | 392 kts | 222° |
| 2026-05-07 18:30 | 52.16177 | 5.43628 | 29347 ft | 391 kts | 222° |
| 2026-05-07 18:30 | 52.14152 | 5.40692 | 29067 ft | 389 kts | 222° |
| 2026-05-07 18:31 | 52.12131 | 5.37772 | 28779 ft | 388 kts | 222° |
| 2026-05-07 18:31 | 52.10115 | 5.34863 | 28498 ft | 386 kts | 222° |
| 2026-05-07 18:31 | 52.08108 | 5.31972 | 28226 ft | 385 kts | 222° |
| 2026-05-07 18:31 | 52.06107 | 5.29099 | 27949 ft | 383 kts | 222° |
| 2026-05-07 18:32 | 52.04115 | 5.26241 | 27683 ft | 381 kts | 222° |
| 2026-05-07 18:32 | 52.02130 | 5.23392 | 27416 ft | 380 kts | 222° |
| 2026-05-07 18:32 | 52.00155 | 5.20558 | 27151 ft | 378 kts | 222° |
| 2026-05-07 18:32 | 51.98187 | 5.17733 | 26888 ft | 377 kts | 222° |
| 2026-05-07 18:33 | 51.96227 | 5.14918 | 26625 ft | 376 kts | 222° |
| 2026-05-07 18:33 | 51.94274 | 5.12120 | 26368 ft | 374 kts | 222° |
| 2026-05-07 18:33 | 51.92324 | 5.09336 | 26111 ft | 373 kts | 222° |
| 2026-05-07 18:33 | 51.90380 | 5.06565 | 25858 ft | 371 kts | 222° |
| 2026-05-07 18:34 | 51.88442 | 5.03809 | 25604 ft | 370 kts | 222° |
| 2026-05-07 18:34 | 51.86509 | 5.01068 | 25357 ft | 369 kts | 222° |
| 2026-05-07 18:34 | 51.84586 | 4.98339 | 25111 ft | 368 kts | 222° |
| 2026-05-07 18:34 | 51.82666 | 4.95620 | 24864 ft | 366 kts | 222° |
| 2026-05-07 18:35 | 51.80754 | 4.92913 | 24624 ft | 365 kts | 222° |
| 2026-05-07 18:35 | 51.78857 | 4.90222 | 24345 ft | 359 kts | 222° |
| 2026-05-07 18:35 | 51.76986 | 4.87570 | 23924 ft | 356 kts | 222° |
| 2026-05-07 18:35 | 51.75131 | 4.84945 | 23444 ft | 354 kts | 222° |
| 2026-05-07 18:36 | 51.73288 | 4.82343 | 22981 ft | 350 kts | 222° |
| 2026-05-07 18:36 | 51.71467 | 4.79776 | 22534 ft | 346 kts | 222° |
| 2026-05-07 18:36 | 51.69663 | 4.77238 | 22094 ft | 342 kts | 222° |
| 2026-05-07 18:36 | 51.67901 | 4.74761 | 21663 ft | 339 kts | 222° |
| 2026-05-07 18:37 | 51.66131 | 4.72275 | 21232 ft | 336 kts | 222° |
| 2026-05-07 18:37 | 51.64675 | 4.70232 | 20876 ft | 334 kts | 222° |
| 2026-05-07 18:37 | 51.62928 | 4.67780 | 20439 ft | 332 kts | 222° |
| 2026-05-07 18:37 | 51.61191 | 4.65347 | 20015 ft | 330 kts | 222° |
| 2026-05-07 18:38 | 51.59461 | 4.62928 | 19589 ft | 329 kts | 222° |
| 2026-05-07 18:38 | 51.57736 | 4.60521 | 19170 ft | 328 kts | 221° |
| 2026-05-07 18:38 | 51.56016 | 4.58122 | 18738 ft | 327 kts | 222° |
| 2026-05-07 18:38 | 51.54603 | 4.56149 | 18401 ft | 326 kts | 221° |
| 2026-05-07 18:39 | 51.52891 | 4.53759 | 17941 ft | 325 kts | 221° |
| 2026-05-07 18:39 | 51.51189 | 4.51389 | 17535 ft | 323 kts | 221° |
| 2026-05-07 18:39 | 51.49498 | 4.49039 | 17129 ft | 321 kts | 221° |
| 2026-05-07 18:39 | 51.47815 | 4.46703 | 16726 ft | 319 kts | 221° |
| 2026-05-07 18:40 | 51.46144 | 4.44384 | 16330 ft | 317 kts | 221° |
| 2026-05-07 18:40 | 51.44479 | 4.42074 | 15935 ft | 316 kts | 221° |
| 2026-05-07 18:40 | 51.42735 | 4.39961 | 15673 ft | 311 kts | 210° |
| 2026-05-07 18:40 | 51.40694 | 4.38871 | 15152 ft | 315 kts | 186° |
| 2026-05-07 18:41 | 51.38506 | 4.39236 | 14647 ft | 321 kts | 162° |
| 2026-05-07 18:41 | 51.36562 | 4.40967 | 14220 ft | 322 kts | 144° |
| 2026-05-07 18:41 | 51.34785 | 4.43146 | 13806 ft | 322 kts | 143° |
| 2026-05-07 18:41 | 51.33029 | 4.45348 | 13377 ft | 320 kts | 142° |
| 2026-05-07 18:42 | 51.31889 | 4.46783 | 13090 ft | 319 kts | 142° |
| 2026-05-07 18:42 | 51.30158 | 4.48968 | 12685 ft | 317 kts | 143° |
| 2026-05-07 18:42 | 51.28434 | 4.51146 | 12272 ft | 315 kts | 143° |
| 2026-05-07 18:42 | 51.26724 | 4.53307 | 11865 ft | 313 kts | 143° |
| 2026-05-07 18:43 | 51.25022 | 4.55460 | 11456 ft | 311 kts | 143° |
| 2026-05-07 18:43 | 51.23352 | 4.57573 | 11238 ft | 299 kts | 142° |
| 2026-05-07 18:43 | 51.21770 | 4.59574 | 11106 ft | 281 kts | 143° |
| 2026-05-07 18:43 | 51.20278 | 4.61463 | 10976 ft | 266 kts | 143° |
| 2026-05-07 18:44 | 51.18855 | 4.63264 | 10673 ft | 258 kts | 143° |
| 2026-05-07 18:44 | 51.17454 | 4.65035 | 10268 ft | 256 kts | 143° |
| 2026-05-07 18:44 | 51.16062 | 4.66790 | 9878 ft | 255 kts | 143° |
| 2026-05-07 18:44 | 51.14675 | 4.68533 | 9562 ft | 253 kts | 143° |
| 2026-05-07 18:45 | 51.13533 | 4.69963 | 9292 ft | 252 kts | 143° |
| 2026-05-07 18:45 | 51.12397 | 4.71385 | 9011 ft | 250 kts | 143° |
| 2026-05-07 18:45 | 51.11029 | 4.73088 | 8672 ft | 249 kts | 143° |
| 2026-05-07 18:45 | 51.09682 | 4.74468 | 8351 ft | 246 kts | 159° |
| 2026-05-07 18:46 | 51.08486 | 4.74924 | 8098 ft | 244 kts | 175° |
| 2026-05-07 18:46 | 51.06801 | 4.75148 | 7740 ft | 243 kts | 176° |
| 2026-05-07 18:46 | 51.05674 | 4.75288 | 7201 ft | 253 kts | 176° |
| 2026-05-07 18:46 | 51.03868 | 4.75509 | 6205 ft | 268 kts | 175° |
| 2026-05-07 18:47 | 51.02022 | 4.75739 | 5823 ft | 258 kts | 175° |
| 2026-05-07 18:47 | 51.00298 | 4.75907 | 5678 ft | 239 kts | 182° |
| 2026-05-07 18:47 | 50.98792 | 4.75122 | 5418 ft | 227 kts | 217° |
| 2026-05-07 18:47 | 50.97842 | 4.73173 | 4956 ft | 226 kts | 246° |
| 2026-05-07 18:48 | 50.97207 | 4.70948 | 4461 ft | 227 kts | 245° |
| 2026-05-07 18:48 | 50.96636 | 4.69011 | 3988 ft | 230 kts | 245° |
| 2026-05-07 18:48 | 50.95959 | 4.66666 | 3412 ft | 234 kts | 246° |
| 2026-05-07 18:48 | 50.95407 | 4.64741 | 3017 ft | 227 kts | 246° |
| 2026-05-07 18:49 | 50.94777 | 4.62541 | 2563 ft | 217 kts | 246° |
| 2026-05-07 18:49 | 50.94167 | 4.60414 | 2108 ft | 209 kts | 246° |
| 2026-05-07 18:49 | 50.93575 | 4.58356 | 1679 ft | 200 kts | 246° |
| 2026-05-07 18:49 | 50.93109 | 4.56733 | 1300 ft | 193 kts | 246° |
| 2026-05-07 18:50 | 50.92587 | 4.54920 | 1176 ft | 170 kts | 246° |
| 2026-05-07 18:50 | 50.92122 | 4.53306 | 1028 ft | 148 kts | 246° |
| 2026-05-07 18:50 | 50.91711 | 4.51884 | 857 ft | 141 kts | 246° |
| 2026-05-07 18:50 | 50.91239 | 4.50230 | 1005 ft | 185 kts | 246° |
| 2026-05-07 18:51 | 50.90687 | 4.48147 | 1243 ft | 225 kts | 249° |
| 2026-05-07 18:51 | 50.90215 | 4.46267 | 1245 ft | 216 kts | 248° |
| 2026-05-07 18:51 | 50.89660 | 4.44134 | 1189 ft | 203 kts | 248° |
| 2026-05-07 18:51 | 50.89249 | 4.42441 | 1472 ft | 199 kts | 250° |
| 2026-05-07 18:52 | 50.88742 | 4.40365 | 1817 ft | 202 kts | 248° |
| 2026-05-07 18:52 | 50.88223 | 4.38286 | 2185 ft | 206 kts | 250° |
| 2026-05-07 18:52 | 50.88195 | 4.36002 | 2762 ft | 211 kts | 290° |
| 2026-05-07 18:52 | 50.88808 | 4.34432 | 3475 ft | 213 kts | 316° |
| 2026-05-07 18:53 | 50.90073 | 4.33341 | 3856 ft | 209 kts | 352° |
| 2026-05-07 18:53 | 50.91480 | 4.33603 | 3984 ft | 205 kts | 28° |
| 2026-05-07 18:53 | 50.92649 | 4.34881 | 4009 ft | 205 kts | 41° |
| 2026-05-07 18:53 | 50.93548 | 4.36089 | 4007 ft | 205 kts | 42° |
| 2026-05-07 18:54 | 50.94620 | 4.37580 | 4011 ft | 205 kts | 43° |
| 2026-05-07 18:54 | 50.95685 | 4.39076 | 4012 ft | 205 kts | 43° |
| 2026-05-07 18:54 | 50.96701 | 4.40647 | 4000 ft | 204 kts | 56° |
| 2026-05-07 18:54 | 50.97291 | 4.42670 | 3869 ft | 201 kts | 71° |
| 2026-05-07 18:55 | 50.97742 | 4.44775 | 3559 ft | 202 kts | 73° |
| 2026-05-07 18:55 | 50.98165 | 4.46898 | 3263 ft | 202 kts | 70° |
| 2026-05-07 18:55 | 50.98686 | 4.48953 | 3039 ft | 199 kts | 68° |
| 2026-05-07 18:55 | 50.99217 | 4.50986 | 3015 ft | 201 kts | 68° |
| 2026-05-07 18:56 | 50.99662 | 4.52684 | 3010 ft | 201 kts | 68° |
| 2026-05-07 18:56 | 51.00200 | 4.54736 | 3006 ft | 201 kts | 68° |
| 2026-05-07 18:56 | 51.00737 | 4.56790 | 3013 ft | 201 kts | 68° |
| 2026-05-07 18:56 | 51.01275 | 4.58849 | 3012 ft | 202 kts | 68° |
| 2026-05-07 18:57 | 51.01811 | 4.60905 | 3013 ft | 202 kts | 68° |
| 2026-05-07 18:57 | 51.02163 | 4.62256 | 3008 ft | 202 kts | 68° |
| 2026-05-07 18:57 | 51.02698 | 4.64315 | 3011 ft | 201 kts | 68° |
| 2026-05-07 18:57 | 51.03233 | 4.66369 | 3011 ft | 201 kts | 68° |
| 2026-05-07 18:58 | 51.03768 | 4.68427 | 3008 ft | 201 kts | 68° |
| 2026-05-07 18:58 | 51.04115 | 4.69761 | 2857 ft | 199 kts | 68° |
| 2026-05-07 18:58 | 51.04514 | 4.71860 | 2544 ft | 199 kts | 86° |
| 2026-05-07 18:58 | 51.04246 | 4.73989 | 2264 ft | 199 kts | 117° |
| 2026-05-07 18:59 | 51.03525 | 4.75345 | 2155 ft | 193 kts | 143° |
| 2026-05-07 18:59 | 51.02290 | 4.76132 | 2070 ft | 197 kts | 173° |
| 2026-05-07 18:59 | 51.00917 | 4.76162 | 1999 ft | 198 kts | 180° |
| 2026-05-07 18:59 | 50.99772 | 4.76155 | 2009 ft | 199 kts | 180° |
| 2026-05-07 19:00 | 50.98385 | 4.76146 | 2011 ft | 199 kts | 181° |
| 2026-05-07 19:00 | 50.97067 | 4.75559 | 2005 ft | 201 kts | 215° |
| 2026-05-07 19:00 | 50.96205 | 4.73855 | 2101 ft | 200 kts | 245° |
| 2026-05-07 19:00 | 50.95904 | 4.72101 | 2343 ft | 200 kts | 261° |
| 2026-05-07 19:01 | 50.95713 | 4.70367 | 2271 ft | 198 kts | 261° |
| 2026-05-07 19:01 | 50.95466 | 4.68231 | 2091 ft | 194 kts | 260° |
| 2026-05-07 19:01 | 50.95244 | 4.66446 | 1847 ft | 193 kts | 259° |
| 2026-05-07 19:01 | 50.94963 | 4.64383 | 1670 ft | 191 kts | 257° |
| 2026-05-07 19:02 | 50.94603 | 4.62353 | 1635 ft | 190 kts | 252° |
| 2026-05-07 19:02 | 50.94164 | 4.60551 | 1407 ft | 174 kts | 248° |
| 2026-05-07 19:02 | 50.93675 | 4.58791 | 1091 ft | 165 kts | 246° |
| 2026-05-07 19:02 | 50.93226 | 4.57187 | 897 ft | 154 kts | 246° |
| 2026-05-07 19:03 | 50.92775 | 4.55707 | 781 ft | 142 kts | 245° |
| 2026-05-07 19:03 | 50.92386 | 4.54327 | 688 ft | 134 kts | 248° |
| 2026-05-07 19:03 | 50.92027 | 4.52981 | 560 ft | 132 kts | 248° |
| 2026-05-07 19:03 | 50.91654 | 4.51661 | 387 ft | 130 kts | 248° |
| 2026-05-07 19:04 | 50.91287 | 4.50374 | 183 ft | 129 kts | 246° |
| 2026-05-07 19:04 | 50.90929 | 4.49148 | 114 ft | 100 kts | 246° |
| 2026-05-07 19:04 | 50.90698 | 4.48339 | 118 ft | 65 kts | 243° |
| 2026-05-07 19:04 | 50.90535 | 4.47827 | 121 ft | 41 kts | 238° |
| 2026-05-07 19:05 | 50.90383 | 4.47598 | 118 ft | 23 kts | 216° |
| 2026-05-07 19:05 | 50.90339 | 4.47548 | 119 ft | 0 kts | 215° |
| 2026-05-07 19:05 | 50.90338 | 4.47547 | 118 ft | 1 kts | 215° |
| 2026-05-07 19:06 | 50.90330 | 4.47540 | 121 ft | 3 kts | 206° |
| 2026-05-07 19:06 | 50.90310 | 4.47644 | 116 ft | 12 kts | 68° |
| 2026-05-07 19:06 | 50.90354 | 4.47790 | 121 ft | 13 kts | 65° |
| 2026-05-07 19:07 | 50.90397 | 4.47941 | 118 ft | 15 kts | 67° |
| 2026-05-07 19:07 | 50.90375 | 4.48077 | 120 ft | 13 kts | 115° |
| 2026-05-07 19:07 | 50.90402 | 4.48238 | 122 ft | 19 kts | 65° |
| 2026-05-07 19:07 | 50.90444 | 4.48382 | 120 ft | 0 kts | 65° |
| 2026-05-07 19:08 | 50.90449 | 4.48410 | 119 ft | 5 kts | 85° |
| 2026-05-07 19:08 | 50.90419 | 4.48454 | 121 ft | 6 kts | 156° |
| 2026-05-07 19:08 | 50.90405 | 4.48462 | 122 ft | 0 kts | 159° |
| 2026-05-07 19:08 | 50.90395 | 4.48471 | 122 ft | 3 kts | 152° |
| 2026-05-07 19:09 | 50.90379 | 4.48483 | 124 ft | 0 kts | 154° |
| 2026-05-07 19:09 | 50.90377 | 4.48484 | 124 ft | 0 kts | 154° |